KSLK/SLK METAR and TAF weather

Enter ICAO airport designator
Station Type Date Time Source
KSLK METAR 2019/08/20 09:41 UTC NOAA

KSLK 200941Z AUTO 00000KT 1 1/4SM BR BKN001 06/06 A3011 RMK AO2 T00610056


Station Type Date Time Source
KSLK Decoded METAR 2019/08/20 09:41 UTC NOAA

ADIRONDACK REGIONAL AIRPORT, NY, United States (KSLK) 44-24N 074-12W 498M
Aug 20, 2019 - 05:41 AM EDT / 2019.08.20 0941 UTC
Wind: Calm:0
Visibility: 1 1/4 mile(s):0
Sky conditions: mostly cloudy
Weather: mist
Temperature: 43.0 F (6.1 C)
Dew Point: 42.1 F (5.6 C)
Relative Humidity: 96%
Pressure (altimeter): 30.11 in. Hg (1019 hPa)
ob: KSLK 200941Z AUTO 00000KT 1 1/4SM BR BKN001 06/06 A3011 RMK AO2 T00610056
cycle: 9

Station Type Date Time Source
KSLK TAF 2019/08/20 06:36 UTC NOAA

TAF KSLK 200533Z 2006/2106 VRB03KT P6SM SKC
FM200730 00000KT 2SM BR SCT001
FM200800 00000KT 1/4SM FG OVC001
FM201200 23003KT P6SM SKC

Example: see airport list